sensor_id;sensor_type;location;lat;lon;timestamp;pressure;altitude;pressure_sealevel;temperature;humidity
75172;BME280;63750;52.418;20.742;2023-03-29T00:00:07;101090.82;;;2.58;44.63
75172;BME280;63750;52.418;20.742;2023-03-29T00:02:36;101090.30;;;2.58;44.66
75172;BME280;63750;52.418;20.742;2023-03-29T00:05:06;101093.65;;;2.57;44.74
75172;BME280;63750;52.418;20.742;2023-03-29T00:07:34;101093.06;;;2.58;44.70
75172;BME280;63750;52.418;20.742;2023-03-29T00:10:04;101097.08;;;2.59;44.70
75172;BME280;63750;52.418;20.742;2023-03-29T00:12:33;101102.02;;;2.58;44.54
75172;BME280;63750;52.418;20.742;2023-03-29T00:15:02;101099.66;;;2.55;44.61
75172;BME280;63750;52.418;20.742;2023-03-29T00:17:31;101101.10;;;2.55;44.71
75172;BME280;63750;52.418;20.742;2023-03-29T00:20:00;101101.30;;;2.54;44.56
75172;BME280;63750;52.418;20.742;2023-03-29T00:22:28;101101.81;;;2.51;44.61
75172;BME280;63750;52.418;20.742;2023-03-29T00:24:57;101105.55;;;2.53;44.44
75172;BME280;63750;52.418;20.742;2023-03-29T00:27:26;101103.39;;;2.54;44.53
75172;BME280;63750;52.418;20.742;2023-03-29T00:29:54;101103.21;;;2.54;44.45
75172;BME280;63750;52.418;20.742;2023-03-29T00:32:24;101099.70;;;2.55;44.37
75172;BME280;63750;52.418;20.742;2023-03-29T00:34:52;101103.91;;;2.51;44.54
75172;BME280;63750;52.418;20.742;2023-03-29T00:37:22;101107.10;;;2.53;44.39
75172;BME280;63750;52.418;20.742;2023-03-29T00:39:51;101106.21;;;2.54;44.51
75172;BME280;63750;52.418;20.742;2023-03-29T00:42:20;101108.71;;;2.53;44.40
75172;BME280;63750;52.418;20.742;2023-03-29T00:45:14;101107.91;;;2.55;44.60
75172;BME280;63750;52.418;20.742;2023-03-29T00:47:46;101109.61;;;2.56;44.70
75172;BME280;63750;52.418;20.742;2023-03-29T00:50:18;101105.30;;;2.55;44.44
75172;BME280;63750;52.418;20.742;2023-03-29T00:52:50;101102.48;;;2.51;44.70
75172;BME280;63750;52.418;20.742;2023-03-29T00:55:22;101103.33;;;2.52;44.79
75172;BME280;63750;52.418;20.742;2023-03-29T00:57:52;101104.65;;;2.53;44.66
75172;BME280;63750;52.418;20.742;2023-03-29T01:00:25;101107.06;;;2.54;44.84
75172;BME280;63750;52.418;20.742;2023-03-29T01:02:57;101106.82;;;2.52;44.69
75172;BME280;63750;52.418;20.742;2023-03-29T01:05:29;101106.81;;;2.52;44.86
75172;BME280;63750;52.418;20.742;2023-03-29T01:08:02;101105.77;;;2.52;44.79
75172;BME280;63750;52.418;20.742;2023-03-29T01:10:35;101106.39;;;2.50;44.88
75172;BME280;63750;52.418;20.742;2023-03-29T01:13:11;101101.23;;;2.48;44.98
75172;BME280;63750;52.418;20.742;2023-03-29T01:15:42;101102.32;;;2.47;45.00
75172;BME280;63750;52.418;20.742;2023-03-29T01:18:12;101102.21;;;2.45;45.11
75172;BME280;63750;52.418;20.742;2023-03-29T01:21:03;101103.01;;;2.47;44.99
75172;BME280;63750;52.418;20.742;2023-03-29T01:24:02;101108.86;;;2.45;45.21
75172;BME280;63750;52.418;20.742;2023-03-29T01:26:40;101104.13;;;2.46;45.17
75172;BME280;63750;52.418;20.742;2023-03-29T01:29:12;101099.59;;;2.45;45.45
75172;BME280;63750;52.418;20.742;2023-03-29T01:31:45;101095.61;;;2.44;45.43
75172;BME280;63750;52.418;20.742;2023-03-29T01:34:23;101093.51;;;2.44;45.42
75172;BME280;63750;52.418;20.742;2023-03-29T01:36:56;101095.35;;;2.46;45.56
75172;BME280;63750;52.418;20.742;2023-03-29T01:39:28;101101.23;;;2.47;45.81
75172;BME280;63750;52.418;20.742;2023-03-29T01:42:05;101104.09;;;2.46;45.58
75172;BME280;63750;52.418;20.742;2023-03-29T01:44:42;101103.10;;;2.45;45.85
75172;BME280;63750;52.418;20.742;2023-03-29T01:47:21;101105.95;;;2.44;45.96
75172;BME280;63750;52.418;20.742;2023-03-29T01:49:59;101105.66;;;2.42;46.09
75172;BME280;63750;52.418;20.742;2023-03-29T01:52:37;101106.71;;;2.42;46.21
75172;BME280;63750;52.418;20.742;2023-03-29T01:55:11;101108.77;;;2.43;46.30
75172;BME280;63750;52.418;20.742;2023-03-29T01:57:42;101111.06;;;2.43;46.31
75172;BME280;63750;52.418;20.742;2023-03-29T02:00:15;101107.62;;;2.42;46.48
75172;BME280;63750;52.418;20.742;2023-03-29T02:02:46;101106.96;;;2.40;46.49
75172;BME280;63750;52.418;20.742;2023-03-29T02:05:17;101107.91;;;2.43;46.49
75172;BME280;63750;52.418;20.742;2023-03-29T02:07:47;101105.92;;;2.44;46.71
75172;BME280;63750;52.418;20.742;2023-03-29T02:10:18;101107.59;;;2.46;46.84
75172;BME280;63750;52.418;20.742;2023-03-29T02:12:47;101108.71;;;2.48;46.87
75172;BME280;63750;52.418;20.742;2023-03-29T02:15:18;101106.06;;;2.45;47.06
75172;BME280;63750;52.418;20.742;2023-03-29T02:17:47;101108.83;;;2.46;47.18
75172;BME280;63750;52.418;20.742;2023-03-29T02:20:20;101108.52;;;2.45;47.21
75172;BME280;63750;52.418;20.742;2023-03-29T02:22:55;101109.15;;;2.42;47.33
75172;BME280;63750;52.418;20.742;2023-03-29T02:25:26;101111.55;;;2.40;47.37
75172;BME280;63750;52.418;20.742;2023-03-29T02:27:54;101113.00;;;2.38;47.40
75172;BME280;63750;52.418;20.742;2023-03-29T02:30:25;101112.92;;;2.37;47.56
75172;BME280;63750;52.418;20.742;2023-03-29T02:32:59;101112.27;;;2.36;47.63
75172;BME280;63750;52.418;20.742;2023-03-29T02:35:36;101111.71;;;2.37;47.72
75172;BME280;63750;52.418;20.742;2023-03-29T02:38:09;101113.26;;;2.33;47.82
75172;BME280;63750;52.418;20.742;2023-03-29T02:40:39;101115.92;;;2.32;47.90
75172;BME280;63750;52.418;20.742;2023-03-29T02:43:09;101114.56;;;2.31;48.09
75172;BME280;63750;52.418;20.742;2023-03-29T02:45:41;101115.48;;;2.30;48.13
75172;BME280;63750;52.418;20.742;2023-03-29T02:48:13;101112.83;;;2.31;48.32
75172;BME280;63750;52.418;20.742;2023-03-29T02:50:48;101117.20;;;2.27;48.31
75172;BME280;63750;52.418;20.742;2023-03-29T02:53:20;101118.05;;;2.23;48.53
75172;BME280;63750;52.418;20.742;2023-03-29T02:55:50;101119.09;;;2.20;48.50
75172;BME280;63750;52.418;20.742;2023-03-29T02:58:19;101118.36;;;2.16;48.55
75172;BME280;63750;52.418;20.742;2023-03-29T03:00:49;101120.14;;;2.11;48.80
75172;BME280;63750;52.418;20.742;2023-03-29T03:03:17;101123.29;;;2.11;48.83
75172;BME280;63750;52.418;20.742;2023-03-29T03:05:46;101123.60;;;2.08;48.99
75172;BME280;63750;52.418;20.742;2023-03-29T03:08:14;101122.02;;;2.04;48.99
75172;BME280;63750;52.418;20.742;2023-03-29T03:10:43;101123.33;;;1.98;49.14
75172;BME280;63750;52.418;20.742;2023-03-29T03:13:11;101121.66;;;1.92;49.27
75172;BME280;63750;52.418;20.742;2023-03-29T03:15:40;101120.10;;;1.87;49.35
75172;BME280;63750;52.418;20.742;2023-03-29T03:18:09;101122.35;;;1.84;49.43
75172;BME280;63750;52.418;20.742;2023-03-29T03:20:37;101124.09;;;1.84;49.60
75172;BME280;63750;52.418;20.742;2023-03-29T03:23:06;101121.34;;;1.82;49.77
75172;BME280;63750;52.418;20.742;2023-03-29T03:25:35;101126.36;;;1.79;49.69
75172;BME280;63750;52.418;20.742;2023-03-29T03:28:04;101129.80;;;1.77;49.71
75172;BME280;63750;52.418;20.742;2023-03-29T03:30:33;101132.09;;;1.76;49.97
75172;BME280;63750;52.418;20.742;2023-03-29T03:33:01;101132.83;;;1.75;50.07
75172;BME280;63750;52.418;20.742;2023-03-29T03:35:30;101133.25;;;1.73;50.17
75172;BME280;63750;52.418;20.742;2023-03-29T03:37:59;101136.81;;;1.72;50.37
75172;BME280;63750;52.418;20.742;2023-03-29T03:40:27;101136.64;;;1.72;50.31
75172;BME280;63750;52.418;20.742;2023-03-29T03:42:56;101135.89;;;1.73;50.54
75172;BME280;63750;52.418;20.742;2023-03-29T03:45:25;101138.67;;;1.73;50.49
75172;BME280;63750;52.418;20.742;2023-03-29T03:47:53;101143.54;;;1.74;50.62
75172;BME280;63750;52.418;20.742;2023-03-29T03:50:22;101143.67;;;1.75;50.68
75172;BME280;63750;52.418;20.742;2023-03-29T03:52:50;101150.23;;;1.72;50.65
75172;BME280;63750;52.418;20.742;2023-03-29T03:55:19;101152.31;;;1.73;50.63
75172;BME280;63750;52.418;20.742;2023-03-29T03:57:48;101151.29;;;1.72;50.86
75172;BME280;63750;52.418;20.742;2023-03-29T04:00:17;101150.61;;;1.72;51.01
75172;BME280;63750;52.418;20.742;2023-03-29T04:02:46;101150.17;;;1.74;51.14
75172;BME280;63750;52.418;20.742;2023-03-29T04:05:15;101147.11;;;1.72;51.00
75172;BME280;63750;52.418;20.742;2023-03-29T04:07:44;101147.91;;;1.74;51.13
75172;BME280;63750;52.418;20.742;2023-03-29T04:10:12;101149.11;;;1.74;51.39
75172;BME280;63750;52.418;20.742;2023-03-29T04:12:41;101152.34;;;1.72;51.46
75172;BME280;63750;52.418;20.742;2023-03-29T04:15:10;101152.39;;;1.71;51.41
75172;BME280;63750;52.418;20.742;2023-03-29T04:17:39;101154.27;;;1.67;51.58
75172;BME280;63750;52.418;20.742;2023-03-29T04:20:08;101157.67;;;1.61;51.79
75172;BME280;63750;52.418;20.742;2023-03-29T04:22:37;101158.77;;;1.56;51.79
75172;BME280;63750;52.418;20.742;2023-03-29T04:25:08;101155.70;;;1.53;51.91
75172;BME280;63750;52.418;20.742;2023-03-29T04:27:36;101153.79;;;1.53;51.81
75172;BME280;63750;52.418;20.742;2023-03-29T04:30:07;101155.11;;;1.51;52.17
75172;BME280;63750;52.418;20.742;2023-03-29T04:32:35;101158.27;;;1.50;52.10
75172;BME280;63750;52.418;20.742;2023-03-29T04:35:05;101157.20;;;1.51;52.30
75172;BME280;63750;52.418;20.742;2023-03-29T04:37:34;101153.33;;;1.52;52.33
75172;BME280;63750;52.418;20.742;2023-03-29T04:40:02;101155.52;;;1.54;52.24
75172;BME280;63750;52.418;20.742;2023-03-29T04:42:31;101162.53;;;1.53;52.26
75172;BME280;63750;52.418;20.742;2023-03-29T04:44:59;101163.00;;;1.55;52.40
75172;BME280;63750;52.418;20.742;2023-03-29T04:47:28;101157.80;;;1.58;52.45
75172;BME280;63750;52.418;20.742;2023-03-29T04:49:56;101161.94;;;1.60;52.34
75172;BME280;63750;52.418;20.742;2023-03-29T04:52:25;101161.88;;;1.61;52.37
75172;BME280;63750;52.418;20.742;2023-03-29T04:54:53;101157.14;;;1.62;52.42
75172;BME280;63750;52.418;20.742;2023-03-29T04:57:22;101158.27;;;1.64;52.54
75172;BME280;63750;52.418;20.742;2023-03-29T04:59:50;101164.05;;;1.68;52.54
75172;BME280;63750;52.418;20.742;2023-03-29T05:02:19;101164.42;;;1.71;52.46
75172;BME280;63750;52.418;20.742;2023-03-29T05:04:48;101167.26;;;1.75;52.61
75172;BME280;63750;52.418;20.742;2023-03-29T05:07:17;101167.73;;;1.81;52.65
75172;BME280;63750;52.418;20.742;2023-03-29T05:09:46;101166.48;;;1.85;52.63
75172;BME280;63750;52.418;20.742;2023-03-29T05:12:14;101163.92;;;1.93;52.58
75172;BME280;63750;52.418;20.742;2023-03-29T05:14:43;101164.23;;;2.02;52.59
75172;BME280;63750;52.418;20.742;2023-03-29T05:17:11;101165.44;;;2.10;52.64
75172;BME280;63750;52.418;20.742;2023-03-29T05:19:40;101162.30;;;2.14;52.70
75172;BME280;63750;52.418;20.742;2023-03-29T05:22:08;101163.86;;;2.23;52.62
75172;BME280;63750;52.418;20.742;2023-03-29T05:24:37;101162.05;;;2.33;52.74
75172;BME280;63750;52.418;20.742;2023-03-29T05:27:06;101159.39;;;2.37;52.63
75172;BME280;63750;52.418;20.742;2023-03-29T05:29:34;101163.16;;;2.43;52.78
75172;BME280;63750;52.418;20.742;2023-03-29T05:32:03;101164.38;;;2.52;52.64
75172;BME280;63750;52.418;20.742;2023-03-29T05:34:32;101164.52;;;2.65;52.67
75172;BME280;63750;52.418;20.742;2023-03-29T05:37:00;101159.95;;;2.77;52.61
75172;BME280;63750;52.418;20.742;2023-03-29T05:39:29;101160.18;;;2.87;52.55
75172;BME280;63750;52.418;20.742;2023-03-29T05:41:57;101166.38;;;3.01;52.51
75172;BME280;63750;52.418;20.742;2023-03-29T05:44:26;101167.12;;;3.11;52.45
75172;BME280;63750;52.418;20.742;2023-03-29T05:46:54;101168.83;;;3.20;52.34
75172;BME280;63750;52.418;20.742;2023-03-29T05:49:23;101165.23;;;3.33;52.29
75172;BME280;63750;52.418;20.742;2023-03-29T05:51:52;101168.49;;;3.45;52.00
75172;BME280;63750;52.418;20.742;2023-03-29T05:54:21;101170.82;;;3.60;52.06
75172;BME280;63750;52.418;20.742;2023-03-29T05:56:49;101172.21;;;3.70;51.93
75172;BME280;63750;52.418;20.742;2023-03-29T05:59:21;101166.89;;;3.82;51.85
75172;BME280;63750;52.418;20.742;2023-03-29T06:01:49;101167.24;;;3.93;51.69
75172;BME280;63750;52.418;20.742;2023-03-29T06:04:18;101166.17;;;4.04;51.60
75172;BME280;63750;52.418;20.742;2023-03-29T06:06:46;101163.34;;;4.12;51.19
75172;BME280;63750;52.418;20.742;2023-03-29T06:09:15;101168.84;;;4.14;51.06
75172;BME280;63750;52.418;20.742;2023-03-29T06:11:43;101166.69;;;4.18;50.99
75172;BME280;63750;52.418;20.742;2023-03-29T06:14:12;101169.41;;;4.20;50.74
75172;BME280;63750;52.418;20.742;2023-03-29T06:16:41;101172.26;;;4.22;50.68
75172;BME280;63750;52.418;20.742;2023-03-29T06:19:09;101172.50;;;4.28;50.39
75172;BME280;63750;52.418;20.742;2023-03-29T06:21:38;101176.02;;;4.31;50.13
75172;BME280;63750;52.418;20.742;2023-03-29T06:24:07;101177.57;;;4.39;50.39
75172;BME280;63750;52.418;20.742;2023-03-29T06:26:35;101181.80;;;4.48;50.39
75172;BME280;63750;52.418;20.742;2023-03-29T06:29:04;101175.60;;;4.60;50.39
75172;BME280;63750;52.418;20.742;2023-03-29T06:31:33;101178.80;;;4.69;50.05
75172;BME280;63750;52.418;20.742;2023-03-29T06:34:02;101178.89;;;4.74;50.02
75172;BME280;63750;52.418;20.742;2023-03-29T06:36:30;101180.02;;;4.86;50.10
75172;BME280;63750;52.418;20.742;2023-03-29T06:38:59;101180.49;;;4.97;50.23
75172;BME280;63750;52.418;20.742;2023-03-29T06:41:28;101181.77;;;5.06;49.79
75172;BME280;63750;52.418;20.742;2023-03-29T06:43:57;101184.25;;;5.15;49.37
75172;BME280;63750;52.418;20.742;2023-03-29T06:46:26;101184.14;;;5.26;49.40
75172;BME280;63750;52.418;20.742;2023-03-29T06:48:54;101188.23;;;5.39;49.56
75172;BME280;63750;52.418;20.742;2023-03-29T06:51:23;101184.56;;;5.45;49.21
75172;BME280;63750;52.418;20.742;2023-03-29T06:53:52;101180.70;;;5.54;49.25
75172;BME280;63750;52.418;20.742;2023-03-29T06:56:20;101182.11;;;5.63;48.92
75172;BME280;63750;52.418;20.742;2023-03-29T06:58:49;101180.91;;;5.72;48.91
75172;BME280;63750;52.418;20.742;2023-03-29T07:01:18;101180.23;;;5.72;48.60
75172;BME280;63750;52.418;20.742;2023-03-29T07:03:46;101181.81;;;5.78;48.56
75172;BME280;63750;52.418;20.742;2023-03-29T07:06:15;101186.39;;;5.90;48.65
75172;BME280;63750;52.418;20.742;2023-03-29T07:08:43;101191.61;;;6.04;47.99
75172;BME280;63750;52.418;20.742;2023-03-29T07:11:13;101187.42;;;6.07;48.08
75172;BME280;63750;52.418;20.742;2023-03-29T07:13:43;101184.54;;;6.11;47.94
75172;BME280;63750;52.418;20.742;2023-03-29T07:16:12;101185.26;;;6.16;47.83
75172;BME280;63750;52.418;20.742;2023-03-29T07:18:41;101182.89;;;6.24;47.80
75172;BME280;63750;52.418;20.742;2023-03-29T07:21:11;101179.66;;;6.27;47.62
75172;BME280;63750;52.418;20.742;2023-03-29T07:23:40;101184.98;;;6.30;47.34
75172;BME280;63750;52.418;20.742;2023-03-29T07:26:09;101188.23;;;6.38;47.26
75172;BME280;63750;52.418;20.742;2023-03-29T07:28:38;101191.27;;;6.49;47.50
75172;BME280;63750;52.418;20.742;2023-03-29T07:31:08;101194.52;;;6.53;47.18
75172;BME280;63750;52.418;20.742;2023-03-29T07:33:37;101195.36;;;6.51;46.98
75172;BME280;63750;52.418;20.742;2023-03-29T07:36:07;101191.36;;;6.56;46.85
75172;BME280;63750;52.418;20.742;2023-03-29T07:38:36;101190.43;;;6.54;46.48
75172;BME280;63750;52.418;20.742;2023-03-29T07:41:06;101186.52;;;6.55;46.76
75172;BME280;63750;52.418;20.742;2023-03-29T07:43:35;101190.67;;;6.62;46.76
75172;BME280;63750;52.418;20.742;2023-03-29T07:46:05;101188.61;;;6.72;46.62
75172;BME280;63750;52.418;20.742;2023-03-29T07:48:33;101191.38;;;6.82;46.75
75172;BME280;63750;52.418;20.742;2023-03-29T07:51:02;101191.21;;;6.82;46.43
75172;BME280;63750;52.418;20.742;2023-03-29T07:53:31;101192.39;;;6.77;46.11
75172;BME280;63750;52.418;20.742;2023-03-29T07:55:59;101190.11;;;6.73;46.03
75172;BME280;63750;52.418;20.742;2023-03-29T07:58:28;101187.32;;;6.73;45.95
75172;BME280;63750;52.418;20.742;2023-03-29T08:00:57;101188.96;;;6.69;45.92
75172;BME280;63750;52.418;20.742;2023-03-29T08:03:26;101194.48;;;6.65;46.02
75172;BME280;63750;52.418;20.742;2023-03-29T08:05:54;101187.13;;;6.65;46.05
75172;BME280;63750;52.418;20.742;2023-03-29T08:08:23;101186.93;;;6.74;46.25
75172;BME280;63750;52.418;20.742;2023-03-29T08:10:53;101191.41;;;6.72;45.89
75172;BME280;63750;52.418;20.742;2023-03-29T08:13:22;101186.80;;;6.79;45.74
75172;BME280;63750;52.418;20.742;2023-03-29T08:15:51;101182.31;;;6.78;45.52
75172;BME280;63750;52.418;20.742;2023-03-29T08:18:19;101184.02;;;6.75;45.73
75172;BME280;63750;52.418;20.742;2023-03-29T08:20:48;101176.98;;;6.81;45.48
75172;BME280;63750;52.418;20.742;2023-03-29T08:23:17;101173.20;;;6.85;45.50
75172;BME280;63750;52.418;20.742;2023-03-29T08:25:47;101172.80;;;6.83;45.14
75172;BME280;63750;52.418;20.742;2023-03-29T08:28:15;101169.02;;;6.87;45.07
75172;BME280;63750;52.418;20.742;2023-03-29T08:30:44;101168.22;;;7.03;45.32
75172;BME280;63750;52.418;20.742;2023-03-29T08:33:13;101177.94;;;7.14;44.70
75172;BME280;63750;52.418;20.742;2023-03-29T08:35:41;101169.66;;;7.08;43.99
75172;BME280;63750;52.418;20.742;2023-03-29T08:38:10;101165.94;;;7.09;44.35
75172;BME280;63750;52.418;20.742;2023-03-29T08:40:38;101165.14;;;7.22;44.61
75172;BME280;63750;52.418;20.742;2023-03-29T08:43:19;101170.20;;;7.30;43.66
75172;BME280;63750;52.418;20.742;2023-03-29T08:45:57;101162.23;;;7.36;43.47
75172;BME280;63750;52.418;20.742;2023-03-29T08:48:30;101161.00;;;7.53;43.31
75172;BME280;63750;52.418;20.742;2023-03-29T08:51:07;101159.36;;;7.62;42.57
75172;BME280;63750;52.418;20.742;2023-03-29T08:53:42;101158.40;;;7.71;42.31
75172;BME280;63750;52.418;20.742;2023-03-29T08:56:14;101160.29;;;7.80;41.55
75172;BME280;63750;52.418;20.742;2023-03-29T08:58:46;101155.73;;;7.83;40.76
75172;BME280;63750;52.418;20.742;2023-03-29T09:01:17;101158.43;;;7.71;39.52
75172;BME280;63750;52.418;20.742;2023-03-29T09:03:49;101149.04;;;7.66;39.90
75172;BME280;63750;52.418;20.742;2023-03-29T09:06:21;101155.33;;;7.57;37.47
75172;BME280;63750;52.418;20.742;2023-03-29T09:08:51;101151.24;;;7.49;38.47
75172;BME280;63750;52.418;20.742;2023-03-29T09:11:30;101149.34;;;7.54;38.55
75172;BME280;63750;52.418;20.742;2023-03-29T09:14:12;101150.36;;;7.68;38.34
75172;BME280;63750;52.418;20.742;2023-03-29T09:16:44;101146.42;;;7.90;38.22
75172;BME280;63750;52.418;20.742;2023-03-29T09:19:32;101146.92;;;8.11;37.46
75172;BME280;63750;52.418;20.742;2023-03-29T09:22:08;101146.50;;;8.04;34.97
75172;BME280;63750;52.418;20.742;2023-03-29T09:24:48;101146.38;;;8.06;35.34
75172;BME280;63750;52.418;20.742;2023-03-29T09:27:25;101143.54;;;8.14;35.72
75172;BME280;63750;52.418;20.742;2023-03-29T09:30:13;101141.02;;;8.23;34.17
75172;BME280;63750;52.418;20.742;2023-03-29T09:32:48;101146.34;;;8.26;33.57
75172;BME280;63750;52.418;20.742;2023-03-29T09:35:22;101141.83;;;8.43;33.25
75172;BME280;63750;52.418;20.742;2023-03-29T09:37:53;101137.67;;;8.62;33.59
75172;BME280;63750;52.418;20.742;2023-03-29T09:40:24;101134.25;;;8.86;33.50
75172;BME280;63750;52.418;20.742;2023-03-29T09:42:55;101134.96;;;9.06;33.06
75172;BME280;63750;52.418;20.742;2023-03-29T09:45:25;101131.75;;;9.16;32.62
75172;BME280;63750;52.418;20.742;2023-03-29T09:47:56;101123.30;;;9.40;32.78
75172;BME280;63750;52.418;20.742;2023-03-29T09:50:31;101122.80;;;9.53;31.48
75172;BME280;63750;52.418;20.742;2023-03-29T09:53:02;101119.21;;;9.62;32.50
75172;BME280;63750;52.418;20.742;2023-03-29T09:55:32;101115.55;;;10.01;33.92
75172;BME280;63750;52.418;20.742;2023-03-29T09:58:06;101119.06;;;10.37;33.95
75172;BME280;63750;52.418;20.742;2023-03-29T10:00:40;101117.56;;;10.69;34.20
75172;BME280;63750;52.418;20.742;2023-03-29T10:03:15;101114.41;;;11.12;34.53
75172;BME280;63750;52.418;20.742;2023-03-29T10:05:46;101108.85;;;11.41;34.03
75172;BME280;63750;52.418;20.742;2023-03-29T10:08:19;101117.36;;;11.41;31.79
75172;BME280;63750;52.418;20.742;2023-03-29T10:10:49;101118.82;;;11.32;31.35
75172;BME280;63750;52.418;20.742;2023-03-29T10:13:22;101114.96;;;11.31;31.33
75172;BME280;63750;52.418;20.742;2023-03-29T10:16:04;101116.45;;;11.37;31.90
75172;BME280;63750;52.418;20.742;2023-03-29T10:18:37;101112.79;;;11.40;31.90
75172;BME280;63750;52.418;20.742;2023-03-29T10:21:08;101121.21;;;11.70;32.44
75172;BME280;63750;52.418;20.742;2023-03-29T10:23:38;101112.71;;;11.74;31.83
75172;BME280;63750;52.418;20.742;2023-03-29T10:26:13;101107.96;;;11.90;31.96
75172;BME280;63750;52.418;20.742;2023-03-29T10:28:43;101115.00;;;11.87;31.38
75172;BME280;63750;52.418;20.742;2023-03-29T10:31:18;101119.16;;;11.74;30.57
75172;BME280;63750;52.418;20.742;2023-03-29T10:33:51;101109.72;;;11.80;31.60
75172;BME280;63750;52.418;20.742;2023-03-29T10:36:21;101112.09;;;12.20;32.74
75172;BME280;63750;52.418;20.742;2023-03-29T10:38:52;101114.75;;;12.38;32.57
75172;BME280;63750;52.418;20.742;2023-03-29T10:41:22;101111.95;;;12.38;30.87
75172;BME280;63750;52.418;20.742;2023-03-29T10:43:52;101114.10;;;12.33;30.61
75172;BME280;63750;52.418;20.742;2023-03-29T10:46:26;101112.86;;;12.31;30.94
75172;BME280;63750;52.418;20.742;2023-03-29T10:48:58;101116.21;;;12.56;31.19
75172;BME280;63750;52.418;20.742;2023-03-29T10:51:28;101114.50;;;12.74;31.06
75172;BME280;63750;52.418;20.742;2023-03-29T10:53:57;101113.45;;;12.94;31.06
75172;BME280;63750;52.418;20.742;2023-03-29T10:56:35;101109.03;;;13.06;30.52
75172;BME280;63750;52.418;20.742;2023-03-29T10:59:24;101103.37;;;13.16;30.00
75172;BME280;63750;52.418;20.742;2023-03-29T11:04:44;101095.40;;;13.69;31.34
75172;BME280;63750;52.418;20.742;2023-03-29T11:07:31;101090.55;;;13.87;30.69
75172;BME280;63750;52.418;20.742;2023-03-29T11:10:08;101086.21;;;14.12;30.48
75172;BME280;63750;52.418;20.742;2023-03-29T11:12:51;101083.13;;;14.32;30.88
75172;BME280;63750;52.418;20.742;2023-03-29T11:15:33;101079.08;;;14.45;29.71
75172;BME280;63750;52.418;20.742;2023-03-29T11:18:14;101077.66;;;14.73;30.61
75172;BME280;63750;52.418;20.742;2023-03-29T11:20:54;101078.54;;;15.04;30.01
75172;BME280;63750;52.418;20.742;2023-03-29T11:23:34;101072.43;;;15.19;29.75
75172;BME280;63750;52.418;20.742;2023-03-29T11:26:12;101065.89;;;15.38;29.54
75172;BME280;63750;52.418;20.742;2023-03-29T11:28:51;101069.84;;;15.33;28.14
75172;BME280;63750;52.418;20.742;2023-03-29T11:31:27;101062.70;;;15.38;28.18
75172;BME280;63750;52.418;20.742;2023-03-29T11:34:15;101061.23;;;15.26;27.59
75172;BME280;63750;52.418;20.742;2023-03-29T11:36:51;101057.66;;;15.18;27.28
75172;BME280;63750;52.418;20.742;2023-03-29T11:39:27;101052.73;;;15.32;27.33
75172;BME280;63750;52.418;20.742;2023-03-29T11:42:02;101051.73;;;15.43;27.04
75172;BME280;63750;52.418;20.742;2023-03-29T11:44:35;101044.47;;;15.38;26.85
75172;BME280;63750;52.418;20.742;2023-03-29T11:47:11;101043.27;;;15.52;26.70
75172;BME280;63750;52.418;20.742;2023-03-29T11:49:45;101045.04;;;15.52;26.19
75172;BME280;63750;52.418;20.742;2023-03-29T11:52:17;101039.17;;;15.23;25.60
75172;BME280;63750;52.418;20.742;2023-03-29T11:54:50;101038.52;;;15.15;24.90
75172;BME280;63750;52.418;20.742;2023-03-29T11:57:22;101034.25;;;15.08;25.31
75172;BME280;63750;52.418;20.742;2023-03-29T11:59:55;101035.75;;;15.22;25.11
75172;BME280;63750;52.418;20.742;2023-03-29T12:02:30;101040.95;;;15.16;24.97
75172;BME280;63750;52.418;20.742;2023-03-29T12:05:04;101040.10;;;15.10;24.22
75172;BME280;63750;52.418;20.742;2023-03-29T12:07:38;101029.49;;;14.98;24.49
75172;BME280;63750;52.418;20.742;2023-03-29T12:10:16;101027.70;;;15.16;24.78
75172;BME280;63750;52.418;20.742;2023-03-29T12:12:49;101022.80;;;15.44;24.81
75172;BME280;63750;52.418;20.742;2023-03-29T12:15:23;101018.10;;;15.70;24.61
75172;BME280;63750;52.418;20.742;2023-03-29T12:17:58;101018.48;;;15.96;24.55
75172;BME280;63750;52.418;20.742;2023-03-29T12:20:31;101017.89;;;16.15;23.96
75172;BME280;63750;52.418;20.742;2023-03-29T12:23:02;101019.40;;;16.22;23.70
75172;BME280;63750;52.418;20.742;2023-03-29T12:25:40;101014.08;;;16.33;23.40
75172;BME280;63750;52.418;20.742;2023-03-29T12:28:23;101012.27;;;16.45;23.33
75172;BME280;63750;52.418;20.742;2023-03-29T12:31:04;101017.01;;;16.62;22.85
75172;BME280;63750;52.418;20.742;2023-03-29T12:36:44;101009.41;;;16.27;22.03
75172;BME280;63750;52.418;20.742;2023-03-29T12:39:18;101005.47;;;16.08;22.42
75172;BME280;63750;52.418;20.742;2023-03-29T12:41:48;101001.05;;;16.23;22.13
75172;BME280;63750;52.418;20.742;2023-03-29T12:44:19;100997.32;;;16.35;22.03
75172;BME280;63750;52.418;20.742;2023-03-29T12:46:52;100995.36;;;16.43;22.12
75172;BME280;63750;52.418;20.742;2023-03-29T12:49:27;100995.93;;;16.61;22.37
75172;BME280;63750;52.418;20.742;2023-03-29T12:51:58;100991.84;;;16.93;22.88
75172;BME280;63750;52.418;20.742;2023-03-29T12:54:29;100983.85;;;17.14;23.08
75172;BME280;63750;52.418;20.742;2023-03-29T12:57:00;100983.83;;;17.26;22.38
75172;BME280;63750;52.418;20.742;2023-03-29T12:59:37;100983.50;;;17.49;24.33
75172;BME280;63750;52.418;20.742;2023-03-29T13:02:32;100983.02;;;17.79;24.62
75172;BME280;63750;52.418;20.742;2023-03-29T13:05:01;100977.47;;;17.89;24.63
75172;BME280;63750;52.418;20.742;2023-03-29T13:07:42;100979.56;;;18.11;25.43
75172;BME280;63750;52.418;20.742;2023-03-29T13:10:33;100977.11;;;18.27;25.09
75172;BME280;63750;52.418;20.742;2023-03-29T13:13:13;100975.31;;;18.44;24.94
75172;BME280;63750;52.418;20.742;2023-03-29T13:15:43;100972.14;;;18.56;24.86